Melbourne, FL (32934)

1:46 AM EDT on July 28, 2016 (GMT -0400)
Deerwood Estates, Poinciana Fl. | | Change Station

Elev 79 ft 28.16 °N, 81.48 °W | Updated 9 seconds ago

Clear
Clear
81.9 °F
Feels Like 90 °F
N
0.0
Wind Variable Wind from SE
Gusts 3.1 mph

Today
High -- | Low -- °F
--% Chance of Precip.
Yesterday
High -- | Low -- °F
Precip. -- in
Pressure 30.07 in
Visibility 10.0 miles
Clouds Clear
Heat Index 90 °F
Dew Point 77.3 °F
Humidity 86%
Rainfall 0.00 in
Snow Depth Not available.
6:43 AM 8:15 PM
Waning Crescent, 35% visible
METAR KMLB 280453Z AUTO 17004KT 10SM CLR 27/24 A3007 RMK AO2 SLP181 T02720239 403330239
Pressure 30.07 in
Visibility 10.0 miles
Clouds Clear
Heat Index 90 °F
Dew Point 77.3 °F
Humidity 86%
Rainfall 0.00 in
Snow Depth Not available.
6:43 AM 8:15 PM
Waning Crescent, 35% visible
METAR KMLB 280453Z AUTO 17004KT 10SM CLR 27/24 A3007 RMK AO2 SLP181 T02720239 403330239

10-Day Weather Forecast

Almanac

Astronomy

Jul. 28, 2016 Rise Set
Actual Time
Civil Twilight
Nautical Twilight
Astronomical Twilight
Moon
Length of Visible Light
Length of Day
Tomorrow will be .
, % of the Moon is Illuminated

Today's Extremes

State Highs State Lows

Community

WunderPhotos

Upload Photos

1,928,064 photos uploaded!

WunderBlog® & News

Nearby

Air Quality

  Air Quality AQ Index Pollutant
Not available.

Snow Depth

Station Depth Elevation

Earthquake Activity

City Distance Mag. Time & Date
Minimum magnitude displayed is 2.5.

Coastal Water Temperatures

Place Temperature

Stations

Nearby Weather Stations

Station Location Temp. Windchill Dew Point Humidity Wind Precip. Elev Updated Type
                   

Watches & Warnings

There are currently no watches in effect.